sensor_id;sensor_type;location;lat;lon;timestamp;P1;durP1;ratioP1;P2;durP2;ratioP2
7531;SDS011;3807;49.030;8.714;2023-06-24T00:02:05;5.05;;;3.97;;
7531;SDS011;3807;49.030;8.714;2023-06-24T00:04:31;5.28;;;4.18;;
7531;SDS011;3807;49.030;8.714;2023-06-24T00:06:56;4.70;;;3.55;;
7531;SDS011;3807;49.030;8.714;2023-06-24T00:09:24;4.78;;;3.78;;
7531;SDS011;3807;49.030;8.714;2023-06-24T00:11:52;5.25;;;3.78;;
7531;SDS011;3807;49.030;8.714;2023-06-24T00:14:17;6.82;;;3.83;;
7531;SDS011;3807;49.030;8.714;2023-06-24T00:16:42;8.70;;;4.05;;
7531;SDS011;3807;49.030;8.714;2023-06-24T00:19:08;4.97;;;3.85;;
7531;SDS011;3807;49.030;8.714;2023-06-24T00:21:33;4.60;;;3.65;;
7531;SDS011;3807;49.030;8.714;2023-06-24T00:24:01;6.03;;;4.28;;
7531;SDS011;3807;49.030;8.714;2023-06-24T00:26:30;6.20;;;3.70;;
7531;SDS011;3807;49.030;8.714;2023-06-24T00:28:56;5.75;;;3.45;;
7531;SDS011;3807;49.030;8.714;2023-06-24T00:31:22;4.85;;;3.53;;
7531;SDS011;3807;49.030;8.714;2023-06-24T00:33:48;6.20;;;4.12;;
7531;SDS011;3807;49.030;8.714;2023-06-24T00:36:14;5.35;;;4.20;;
7531;SDS011;3807;49.030;8.714;2023-06-24T00:38:40;4.80;;;3.67;;
7531;SDS011;3807;49.030;8.714;2023-06-24T00:41:05;4.85;;;3.90;;
7531;SDS011;3807;49.030;8.714;2023-06-24T00:43:32;6.32;;;3.80;;
7531;SDS011;3807;49.030;8.714;2023-06-24T00:45:58;4.72;;;4.07;;
7531;SDS011;3807;49.030;8.714;2023-06-24T00:48:24;6.55;;;4.10;;
7531;SDS011;3807;49.030;8.714;2023-06-24T00:50:49;4.80;;;3.83;;
7531;SDS011;3807;49.030;8.714;2023-06-24T00:53:16;6.18;;;4.07;;
7531;SDS011;3807;49.030;8.714;2023-06-24T00:55:42;7.05;;;3.95;;
7531;SDS011;3807;49.030;8.714;2023-06-24T00:58:08;5.05;;;3.53;;
7531;SDS011;3807;49.030;8.714;2023-06-24T01:00:33;6.97;;;4.00;;
7531;SDS011;3807;49.030;8.714;2023-06-24T01:02:59;5.97;;;4.00;;
7531;SDS011;3807;49.030;8.714;2023-06-24T01:05:25;4.32;;;3.70;;
7531;SDS011;3807;49.030;8.714;2023-06-24T01:07:52;4.70;;;3.53;;
7531;SDS011;3807;49.030;8.714;2023-06-24T01:10:22;8.65;;;4.80;;
7531;SDS011;3807;49.030;8.714;2023-06-24T01:12:49;6.43;;;3.92;;
7531;SDS011;3807;49.030;8.714;2023-06-24T01:15:14;4.40;;;3.92;;
7531;SDS011;3807;49.030;8.714;2023-06-24T01:18:04;5.10;;;4.18;;
7531;SDS011;3807;49.030;8.714;2023-06-24T01:31:39;5.47;;;3.97;;
7531;SDS011;3807;49.030;8.714;2023-06-24T01:34:34;3.87;;;3.45;;
7531;SDS011;3807;49.030;8.714;2023-06-24T01:39:59;5.00;;;4.25;;
7531;SDS011;3807;49.030;8.714;2023-06-24T01:42:35;4.82;;;3.65;;
7531;SDS011;3807;49.030;8.714;2023-06-24T01:45:03;4.22;;;3.62;;
7531;SDS011;3807;49.030;8.714;2023-06-24T01:47:36;5.20;;;3.70;;
7531;SDS011;3807;49.030;8.714;2023-06-24T01:50:02;8.00;;;4.10;;
7531;SDS011;3807;49.030;8.714;2023-06-24T01:52:29;4.25;;;3.62;;
7531;SDS011;3807;49.030;8.714;2023-06-24T01:54:55;6.15;;;4.05;;
7531;SDS011;3807;49.030;8.714;2023-06-24T01:57:23;5.20;;;4.15;;
7531;SDS011;3807;49.030;8.714;2023-06-24T01:59:52;7.75;;;4.50;;
7531;SDS011;3807;49.030;8.714;2023-06-24T02:02:19;5.35;;;4.20;;
7531;SDS011;3807;49.030;8.714;2023-06-24T02:04:45;5.85;;;4.03;;
7531;SDS011;3807;49.030;8.714;2023-06-24T02:07:11;5.97;;;4.30;;
7531;SDS011;3807;49.030;8.714;2023-06-24T02:09:38;6.40;;;4.20;;
7531;SDS011;3807;49.030;8.714;2023-06-24T02:12:04;4.82;;;4.32;;
7531;SDS011;3807;49.030;8.714;2023-06-24T02:14:31;6.72;;;4.00;;
7531;SDS011;3807;49.030;8.714;2023-06-24T02:16:57;6.93;;;4.20;;
7531;SDS011;3807;49.030;8.714;2023-06-24T02:19:25;5.18;;;4.28;;
7531;SDS011;3807;49.030;8.714;2023-06-24T02:21:54;6.35;;;4.05;;
7531;SDS011;3807;49.030;8.714;2023-06-24T02:24:21;6.35;;;3.70;;
7531;SDS011;3807;49.030;8.714;2023-06-24T02:26:47;4.78;;;3.95;;
7531;SDS011;3807;49.030;8.714;2023-06-24T02:29:13;9.90;;;5.15;;
7531;SDS011;3807;49.030;8.714;2023-06-24T02:31:39;7.50;;;4.60;;
7531;SDS011;3807;49.030;8.714;2023-06-24T02:34:04;8.77;;;4.68;;
7531;SDS011;3807;49.030;8.714;2023-06-24T02:36:30;5.97;;;3.85;;
7531;SDS011;3807;49.030;8.714;2023-06-24T02:38:55;6.22;;;4.07;;
7531;SDS011;3807;49.030;8.714;2023-06-24T02:41:21;6.12;;;3.83;;
7531;SDS011;3807;49.030;8.714;2023-06-24T02:43:46;7.18;;;4.18;;
7531;SDS011;3807;49.030;8.714;2023-06-24T02:46:11;5.70;;;4.32;;
7531;SDS011;3807;49.030;8.714;2023-06-24T02:48:39;8.13;;;4.07;;
7531;SDS011;3807;49.030;8.714;2023-06-24T02:51:06;7.05;;;4.15;;
7531;SDS011;3807;49.030;8.714;2023-06-24T02:53:32;7.35;;;4.53;;
7531;SDS011;3807;49.030;8.714;2023-06-24T02:55:58;7.72;;;4.57;;
7531;SDS011;3807;49.030;8.714;2023-06-24T02:58:24;5.50;;;4.40;;
7531;SDS011;3807;49.030;8.714;2023-06-24T03:00:56;5.68;;;4.07;;
7531;SDS011;3807;49.030;8.714;2023-06-24T03:03:26;6.15;;;4.37;;
7531;SDS011;3807;49.030;8.714;2023-06-24T03:05:53;5.65;;;4.30;;
7531;SDS011;3807;49.030;8.714;2023-06-24T03:08:21;4.72;;;3.85;;
7531;SDS011;3807;49.030;8.714;2023-06-24T03:10:48;6.95;;;4.50;;
7531;SDS011;3807;49.030;8.714;2023-06-24T03:13:14;4.90;;;4.12;;
7531;SDS011;3807;49.030;8.714;2023-06-24T03:15:39;6.72;;;3.90;;
7531;SDS011;3807;49.030;8.714;2023-06-24T03:18:04;5.82;;;3.85;;
7531;SDS011;3807;49.030;8.714;2023-06-24T03:20:30;4.95;;;4.00;;
7531;SDS011;3807;49.030;8.714;2023-06-24T03:23:04;5.82;;;4.65;;
7531;SDS011;3807;49.030;8.714;2023-06-24T03:25:33;5.97;;;4.40;;
7531;SDS011;3807;49.030;8.714;2023-06-24T03:27:59;5.97;;;4.32;;
7531;SDS011;3807;49.030;8.714;2023-06-24T03:30:34;8.70;;;5.30;;
7531;SDS011;3807;49.030;8.714;2023-06-24T03:32:59;5.43;;;4.57;;
7531;SDS011;3807;49.030;8.714;2023-06-24T03:35:25;8.10;;;4.82;;
7531;SDS011;3807;49.030;8.714;2023-06-24T03:37:50;9.85;;;5.25;;
7531;SDS011;3807;49.030;8.714;2023-06-24T03:40:15;5.62;;;4.75;;
7531;SDS011;3807;49.030;8.714;2023-06-24T03:42:41;4.87;;;3.83;;
7531;SDS011;3807;49.030;8.714;2023-06-24T03:45:06;7.55;;;4.93;;
7531;SDS011;3807;49.030;8.714;2023-06-24T03:47:32;9.05;;;4.95;;
7531;SDS011;3807;49.030;8.714;2023-06-24T03:49:57;6.83;;;4.90;;
7531;SDS011;3807;49.030;8.714;2023-06-24T03:52:22;7.23;;;5.10;;
7531;SDS011;3807;49.030;8.714;2023-06-24T03:54:48;8.70;;;4.87;;
7531;SDS011;3807;49.030;8.714;2023-06-24T03:57:13;6.63;;;4.73;;
7531;SDS011;3807;49.030;8.714;2023-06-24T03:59:38;8.13;;;4.60;;
7531;SDS011;3807;49.030;8.714;2023-06-24T04:02:07;7.10;;;4.37;;
7531;SDS011;3807;49.030;8.714;2023-06-24T04:04:33;7.33;;;4.77;;
7531;SDS011;3807;49.030;8.714;2023-06-24T04:07:01;6.20;;;4.53;;
7531;SDS011;3807;49.030;8.714;2023-06-24T04:09:28;8.90;;;5.37;;
7531;SDS011;3807;49.030;8.714;2023-06-24T04:11:54;5.27;;;4.67;;
7531;SDS011;3807;49.030;8.714;2023-06-24T04:14:20;6.97;;;4.90;;
7531;SDS011;3807;49.030;8.714;2023-06-24T04:16:45;9.30;;;5.73;;
7531;SDS011;3807;49.030;8.714;2023-06-24T04:19:10;9.30;;;4.97;;
7531;SDS011;3807;49.030;8.714;2023-06-24T04:21:36;7.47;;;4.70;;
7531;SDS011;3807;49.030;8.714;2023-06-24T04:24:02;7.27;;;5.43;;
7531;SDS011;3807;49.030;8.714;2023-06-24T04:26:28;8.43;;;5.12;;
7531;SDS011;3807;49.030;8.714;2023-06-24T04:28:53;5.03;;;4.50;;
7531;SDS011;3807;49.030;8.714;2023-06-24T04:31:19;7.63;;;4.57;;
7531;SDS011;3807;49.030;8.714;2023-06-24T04:33:44;9.50;;;5.40;;
7531;SDS011;3807;49.030;8.714;2023-06-24T04:36:09;7.43;;;5.13;;
7531;SDS011;3807;49.030;8.714;2023-06-24T04:38:34;6.13;;;4.50;;
7531;SDS011;3807;49.030;8.714;2023-06-24T04:41:00;6.90;;;5.20;;
7531;SDS011;3807;49.030;8.714;2023-06-24T04:43:25;7.70;;;5.20;;
7531;SDS011;3807;49.030;8.714;2023-06-24T04:45:53;9.87;;;5.37;;
7531;SDS011;3807;49.030;8.714;2023-06-24T04:48:20;6.17;;;4.77;;
7531;SDS011;3807;49.030;8.714;2023-06-24T04:50:45;9.70;;;5.50;;
7531;SDS011;3807;49.030;8.714;2023-06-24T04:53:11;6.93;;;5.40;;
7531;SDS011;3807;49.030;8.714;2023-06-24T04:55:36;7.40;;;5.33;;
7531;SDS011;3807;49.030;8.714;2023-06-24T04:58:01;9.80;;;5.27;;
7531;SDS011;3807;49.030;8.714;2023-06-24T05:00:27;9.73;;;5.73;;
7531;SDS011;3807;49.030;8.714;2023-06-24T05:02:52;9.67;;;5.77;;
7531;SDS011;3807;49.030;8.714;2023-06-24T05:05:18;9.87;;;5.67;;
7531;SDS011;3807;49.030;8.714;2023-06-24T05:07:45;7.97;;;6.10;;
7531;SDS011;3807;49.030;8.714;2023-06-24T05:10:10;7.57;;;5.73;;
7531;SDS011;3807;49.030;8.714;2023-06-24T05:12:36;6.47;;;4.97;;
7531;SDS011;3807;49.030;8.714;2023-06-24T05:15:01;7.93;;;4.93;;
7531;SDS011;3807;49.030;8.714;2023-06-24T05:17:27;8.03;;;5.27;;
7531;SDS011;3807;49.030;8.714;2023-06-24T05:19:52;8.57;;;5.17;;
7531;SDS011;3807;49.030;8.714;2023-06-24T05:22:17;6.97;;;4.97;;
7531;SDS011;3807;49.030;8.714;2023-06-24T05:24:43;8.53;;;4.90;;
7531;SDS011;3807;49.030;8.714;2023-06-24T05:27:08;5.43;;;4.60;;
7531;SDS011;3807;49.030;8.714;2023-06-24T05:29:34;5.53;;;4.43;;
7531;SDS011;3807;49.030;8.714;2023-06-24T05:32:00;6.37;;;4.90;;
7531;SDS011;3807;49.030;8.714;2023-06-24T05:34:27;7.73;;;4.13;;
7531;SDS011;3807;49.030;8.714;2023-06-24T05:36:52;5.90;;;4.30;;
7531;SDS011;3807;49.030;8.714;2023-06-24T05:39:18;6.17;;;4.70;;
7531;SDS011;3807;49.030;8.714;2023-06-24T05:41:43;6.80;;;4.83;;
7531;SDS011;3807;49.030;8.714;2023-06-24T05:44:09;8.93;;;5.10;;
7531;SDS011;3807;49.030;8.714;2023-06-24T05:46:37;7.20;;;5.03;;
7531;SDS011;3807;49.030;8.714;2023-06-24T05:49:02;5.57;;;4.40;;
7531;SDS011;3807;49.030;8.714;2023-06-24T05:51:28;7.30;;;4.97;;
7531;SDS011;3807;49.030;8.714;2023-06-24T05:53:54;8.13;;;4.50;;
7531;SDS011;3807;49.030;8.714;2023-06-24T05:56:19;6.37;;;4.50;;
7531;SDS011;3807;49.030;8.714;2023-06-24T05:58:45;5.43;;;4.30;;
7531;SDS011;3807;49.030;8.714;2023-06-24T06:01:11;6.10;;;4.60;;
7531;SDS011;3807;49.030;8.714;2023-06-24T06:03:36;7.37;;;4.73;;
7531;SDS011;3807;49.030;8.714;2023-06-24T06:06:02;5.20;;;4.40;;
7531;SDS011;3807;49.030;8.714;2023-06-24T06:08:27;5.10;;;4.07;;
7531;SDS011;3807;49.030;8.714;2023-06-24T06:10:52;6.33;;;4.20;;
7531;SDS011;3807;49.030;8.714;2023-06-24T06:13:18;7.93;;;3.97;;
7531;SDS011;3807;49.030;8.714;2023-06-24T06:15:43;6.50;;;4.10;;
7531;SDS011;3807;49.030;8.714;2023-06-24T06:18:09;6.37;;;4.23;;
7531;SDS011;3807;49.030;8.714;2023-06-24T06:20:34;5.13;;;4.30;;
7531;SDS011;3807;49.030;8.714;2023-06-24T06:22:59;5.30;;;4.67;;
7531;SDS011;3807;49.030;8.714;2023-06-24T06:25:25;6.03;;;4.50;;
7531;SDS011;3807;49.030;8.714;2023-06-24T06:27:50;5.40;;;4.50;;
7531;SDS011;3807;49.030;8.714;2023-06-24T06:30:15;8.13;;;4.63;;
7531;SDS011;3807;49.030;8.714;2023-06-24T06:32:41;8.10;;;5.40;;
7531;SDS011;3807;49.030;8.714;2023-06-24T06:35:06;6.63;;;5.13;;
7531;SDS011;3807;49.030;8.714;2023-06-24T06:37:33;8.03;;;5.07;;
7531;SDS011;3807;49.030;8.714;2023-06-24T06:39:58;5.43;;;4.53;;
7531;SDS011;3807;49.030;8.714;2023-06-24T06:42:23;6.37;;;5.03;;
7531;SDS011;3807;49.030;8.714;2023-06-24T06:44:49;6.30;;;4.93;;
7531;SDS011;3807;49.030;8.714;2023-06-24T06:47:14;5.23;;;4.60;;
7531;SDS011;3807;49.030;8.714;2023-06-24T06:49:39;5.50;;;4.55;;
7531;SDS011;3807;49.030;8.714;2023-06-24T06:52:05;5.73;;;4.57;;
7531;SDS011;3807;49.030;8.714;2023-06-24T06:54:31;6.03;;;4.33;;
7531;SDS011;3807;49.030;8.714;2023-06-24T06:57:00;6.93;;;4.77;;
7531;SDS011;3807;49.030;8.714;2023-06-24T06:59:26;6.00;;;4.60;;
7531;SDS011;3807;49.030;8.714;2023-06-24T07:01:51;7.93;;;4.63;;
7531;SDS011;3807;49.030;8.714;2023-06-24T07:04:16;6.70;;;4.60;;
7531;SDS011;3807;49.030;8.714;2023-06-24T07:06:42;6.73;;;4.70;;
7531;SDS011;3807;49.030;8.714;2023-06-24T07:09:07;5.50;;;4.10;;
7531;SDS011;3807;49.030;8.714;2023-06-24T07:11:32;5.60;;;4.57;;
7531;SDS011;3807;49.030;8.714;2023-06-24T07:13:58;9.32;;;4.62;;
7531;SDS011;3807;49.030;8.714;2023-06-24T07:16:23;5.23;;;4.50;;
7531;SDS011;3807;49.030;8.714;2023-06-24T07:18:48;4.47;;;4.03;;
7531;SDS011;3807;49.030;8.714;2023-06-24T07:21:14;5.87;;;3.90;;
7531;SDS011;3807;49.030;8.714;2023-06-24T07:23:39;6.40;;;4.50;;
7531;SDS011;3807;49.030;8.714;2023-06-24T07:26:05;6.65;;;4.95;;
7531;SDS011;3807;49.030;8.714;2023-06-24T07:28:31;5.37;;;4.35;;
7531;SDS011;3807;49.030;8.714;2023-06-24T07:30:56;5.70;;;4.20;;
7531;SDS011;3807;49.030;8.714;2023-06-24T07:33:21;4.90;;;4.32;;
7531;SDS011;3807;49.030;8.714;2023-06-24T07:35:47;4.93;;;4.25;;
7531;SDS011;3807;49.030;8.714;2023-06-24T07:38:12;4.97;;;4.20;;
7531;SDS011;3807;49.030;8.714;2023-06-24T07:40:37;4.53;;;4.00;;
7531;SDS011;3807;49.030;8.714;2023-06-24T07:43:02;6.28;;;4.20;;
7531;SDS011;3807;49.030;8.714;2023-06-24T07:45:28;5.75;;;4.25;;
7531;SDS011;3807;49.030;8.714;2023-06-24T07:47:53;8.68;;;4.03;;
7531;SDS011;3807;49.030;8.714;2023-06-24T07:50:19;6.72;;;4.37;;
7531;SDS011;3807;49.030;8.714;2023-06-24T07:52:44;6.30;;;4.45;;
7531;SDS011;3807;49.030;8.714;2023-06-24T07:55:10;6.97;;;4.30;;
7531;SDS011;3807;49.030;8.714;2023-06-24T07:57:36;5.12;;;3.90;;
7531;SDS011;3807;49.030;8.714;2023-06-24T08:00:01;5.07;;;4.07;;
7531;SDS011;3807;49.030;8.714;2023-06-24T08:02:27;5.03;;;4.03;;
7531;SDS011;3807;49.030;8.714;2023-06-24T08:04:54;5.62;;;3.83;;
7531;SDS011;3807;49.030;8.714;2023-06-24T08:07:19;4.95;;;4.05;;
7531;SDS011;3807;49.030;8.714;2023-06-24T08:09:45;5.53;;;3.30;;
7531;SDS011;3807;49.030;8.714;2023-06-24T08:12:10;4.85;;;3.95;;
7531;SDS011;3807;49.030;8.714;2023-06-24T08:14:35;3.95;;;3.55;;
7531;SDS011;3807;49.030;8.714;2023-06-24T08:17:01;4.68;;;3.80;;
7531;SDS011;3807;49.030;8.714;2023-06-24T08:19:26;4.28;;;3.30;;
7531;SDS011;3807;49.030;8.714;2023-06-24T08:21:52;5.18;;;4.18;;
7531;SDS011;3807;49.030;8.714;2023-06-24T08:24:18;4.47;;;3.40;;
7531;SDS011;3807;49.030;8.714;2023-06-24T08:26:44;4.82;;;3.60;;
7531;SDS011;3807;49.030;8.714;2023-06-24T08:29:09;5.55;;;3.65;;
7531;SDS011;3807;49.030;8.714;2023-06-24T08:31:34;6.65;;;3.70;;
7531;SDS011;3807;49.030;8.714;2023-06-24T08:33:59;6.00;;;4.00;;
7531;SDS011;3807;49.030;8.714;2023-06-24T08:36:27;4.18;;;3.30;;
7531;SDS011;3807;49.030;8.714;2023-06-24T08:38:54;6.22;;;3.17;;
7531;SDS011;3807;49.030;8.714;2023-06-24T08:41:19;4.05;;;3.00;;
7531;SDS011;3807;49.030;8.714;2023-06-24T08:43:44;5.00;;;3.40;;
7531;SDS011;3807;49.030;8.714;2023-06-24T08:46:10;3.78;;;3.37;;
7531;SDS011;3807;49.030;8.714;2023-06-24T08:48:38;4.72;;;3.40;;
7531;SDS011;3807;49.030;8.714;2023-06-24T08:51:07;6.00;;;3.47;;
7531;SDS011;3807;49.030;8.714;2023-06-24T08:53:34;3.78;;;3.37;;
7531;SDS011;3807;49.030;8.714;2023-06-24T08:56:00;4.40;;;3.72;;
7531;SDS011;3807;49.030;8.714;2023-06-24T08:58:26;5.80;;;3.60;;
7531;SDS011;3807;49.030;8.714;2023-06-24T09:00:52;5.20;;;3.47;;
7531;SDS011;3807;49.030;8.714;2023-06-24T09:03:18;4.60;;;3.50;;
7531;SDS011;3807;49.030;8.714;2023-06-24T09:05:43;3.53;;;2.97;;
7531;SDS011;3807;49.030;8.714;2023-06-24T09:08:09;3.62;;;3.17;;
7531;SDS011;3807;49.030;8.714;2023-06-24T09:10:35;4.15;;;3.15;;
7531;SDS011;3807;49.030;8.714;2023-06-24T09:13:02;3.33;;;3.03;;
7531;SDS011;3807;49.030;8.714;2023-06-24T09:15:35;4.87;;;3.30;;
7531;SDS011;3807;49.030;8.714;2023-06-24T09:18:03;4.37;;;3.25;;
7531;SDS011;3807;49.030;8.714;2023-06-24T09:20:29;3.37;;;3.08;;
7531;SDS011;3807;49.030;8.714;2023-06-24T09:23:00;3.70;;;3.05;;
7531;SDS011;3807;49.030;8.714;2023-06-24T09:25:26;3.95;;;3.20;;
7531;SDS011;3807;49.030;8.714;2023-06-24T09:27:52;3.80;;;3.15;;
7531;SDS011;3807;49.030;8.714;2023-06-24T09:30:21;3.70;;;3.17;;
7531;SDS011;3807;49.030;8.714;2023-06-24T09:32:48;3.83;;;3.00;;
7531;SDS011;3807;49.030;8.714;2023-06-24T09:35:16;4.30;;;3.30;;
7531;SDS011;3807;49.030;8.714;2023-06-24T09:37:43;4.47;;;3.20;;
7531;SDS011;3807;49.030;8.714;2023-06-24T09:40:14;5.85;;;3.22;;
7531;SDS011;3807;49.030;8.714;2023-06-24T09:42:47;4.65;;;3.20;;
7531;SDS011;3807;49.030;8.714;2023-06-24T09:45:23;3.97;;;3.05;;
7531;SDS011;3807;49.030;8.714;2023-06-24T09:47:50;4.90;;;3.58;;
7531;SDS011;3807;49.030;8.714;2023-06-24T09:50:16;5.12;;;2.97;;
7531;SDS011;3807;49.030;8.714;2023-06-24T09:52:42;5.97;;;3.33;;
7531;SDS011;3807;49.030;8.714;2023-06-24T09:55:09;4.37;;;3.15;;
7531;SDS011;3807;49.030;8.714;2023-06-24T09:57:37;4.00;;;3.20;;
7531;SDS011;3807;49.030;8.714;2023-06-24T10:00:04;5.78;;;3.20;;
7531;SDS011;3807;49.030;8.714;2023-06-24T10:02:31;6.37;;;3.00;;
7531;SDS011;3807;49.030;8.714;2023-06-24T10:04:57;3.62;;;3.03;;
7531;SDS011;3807;49.030;8.714;2023-06-24T10:07:24;6.45;;;2.90;;
7531;SDS011;3807;49.030;8.714;2023-06-24T10:09:52;4.75;;;3.00;;
7531;SDS011;3807;49.030;8.714;2023-06-24T10:12:18;3.90;;;2.97;;
7531;SDS011;3807;49.030;8.714;2023-06-24T10:14:44;4.30;;;3.15;;
7531;SDS011;3807;49.030;8.714;2023-06-24T10:17:09;4.87;;;2.85;;
7531;SDS011;3807;49.030;8.714;2023-06-24T10:19:40;5.43;;;2.90;;
7531;SDS011;3807;49.030;8.714;2023-06-24T10:22:07;3.90;;;3.17;;
7531;SDS011;3807;49.030;8.714;2023-06-24T10:24:35;4.03;;;2.60;;
7531;SDS011;3807;49.030;8.714;2023-06-24T10:27:06;3.28;;;2.92;;
7531;SDS011;3807;49.030;8.714;2023-06-24T10:29:36;3.40;;;2.83;;
7531;SDS011;3807;49.030;8.714;2023-06-24T10:32:11;5.70;;;3.15;;
7531;SDS011;3807;49.030;8.714;2023-06-24T10:44:49;3.40;;;2.67;;
7531;SDS011;3807;49.030;8.714;2023-06-24T10:47:15;5.87;;;3.05;;
7531;SDS011;3807;49.030;8.714;2023-06-24T10:49:41;3.67;;;2.62;;
7531;SDS011;3807;49.030;8.714;2023-06-24T10:52:09;4.25;;;2.95;;
7531;SDS011;3807;49.030;8.714;2023-06-24T10:54:36;5.65;;;2.53;;
7531;SDS011;3807;49.030;8.714;2023-06-24T10:57:06;4.28;;;3.03;;
7531;SDS011;3807;49.030;8.714;2023-06-24T10:59:51;3.10;;;2.60;;
7531;SDS011;3807;49.030;8.714;2023-06-24T11:02:22;3.42;;;2.97;;
7531;SDS011;3807;49.030;8.714;2023-06-24T11:04:52;5.05;;;3.45;;
7531;SDS011;3807;49.030;8.714;2023-06-24T11:07:20;3.15;;;2.85;;
7531;SDS011;3807;49.030;8.714;2023-06-24T11:09:50;3.70;;;3.00;;
7531;SDS011;3807;49.030;8.714;2023-06-24T11:12:17;3.85;;;2.53;;
7531;SDS011;3807;49.030;8.714;2023-06-24T11:14:44;5.03;;;3.03;;
7531;SDS011;3807;49.030;8.714;2023-06-24T11:17:09;3.08;;;2.67;;
7531;SDS011;3807;49.030;8.714;2023-06-24T11:19:35;2.97;;;2.60;;
7531;SDS011;3807;49.030;8.714;2023-06-24T11:22:04;3.30;;;3.00;;
7531;SDS011;3807;49.030;8.714;2023-06-24T11:24:30;3.15;;;2.85;;
7531;SDS011;3807;49.030;8.714;2023-06-24T11:26:56;3.60;;;2.80;;
7531;SDS011;3807;49.030;8.714;2023-06-24T11:29:22;3.45;;;2.80;;
7531;SDS011;3807;49.030;8.714;2023-06-24T11:31:48;5.70;;;2.85;;
7531;SDS011;3807;49.030;8.714;2023-06-24T11:34:14;3.12;;;2.72;;
7531;SDS011;3807;49.030;8.714;2023-06-24T11:36:40;2.85;;;2.33;;
7531;SDS011;3807;49.030;8.714;2023-06-24T11:39:06;3.55;;;3.25;;
7531;SDS011;3807;49.030;8.714;2023-06-24T11:41:31;3.28;;;2.50;;
7531;SDS011;3807;49.030;8.714;2023-06-24T11:43:59;3.35;;;2.80;;
7531;SDS011;3807;49.030;8.714;2023-06-24T11:46:25;7.93;;;2.60;;
7531;SDS011;3807;49.030;8.714;2023-06-24T11:48:52;4.50;;;2.70;;
7531;SDS011;3807;49.030;8.714;2023-06-24T11:51:18;2.85;;;2.50;;
7531;SDS011;3807;49.030;8.714;2023-06-24T11:53:44;6.28;;;2.85;;
7531;SDS011;3807;49.030;8.714;2023-06-24T11:56:13;4.28;;;2.60;;
7531;SDS011;3807;49.030;8.714;2023-06-24T11:58:39;3.80;;;2.97;;
7531;SDS011;3807;49.030;8.714;2023-06-24T12:01:07;3.37;;;3.08;;
7531;SDS011;3807;49.030;8.714;2023-06-24T12:03:33;4.82;;;2.70;;
7531;SDS011;3807;49.030;8.714;2023-06-24T12:05:58;3.45;;;2.65;;
7531;SDS011;3807;49.030;8.714;2023-06-24T12:08:24;3.97;;;2.85;;
7531;SDS011;3807;49.030;8.714;2023-06-24T12:10:49;3.33;;;2.80;;
7531;SDS011;3807;49.030;8.714;2023-06-24T12:13:15;3.05;;;2.70;;
7531;SDS011;3807;49.030;8.714;2023-06-24T12:15:40;4.45;;;3.12;;
7531;SDS011;3807;49.030;8.714;2023-06-24T12:18:06;3.35;;;2.72;;
7531;SDS011;3807;49.030;8.714;2023-06-24T12:20:31;4.18;;;2.87;;
7531;SDS011;3807;49.030;8.714;2023-06-24T12:22:58;3.05;;;2.72;;
7531;SDS011;3807;49.030;8.714;2023-06-24T12:25:23;3.58;;;2.78;;
7531;SDS011;3807;49.030;8.714;2023-06-24T12:27:49;4.68;;;2.87;;
7531;SDS011;3807;49.030;8.714;2023-06-24T12:30:15;4.43;;;2.72;;
7531;SDS011;3807;49.030;8.714;2023-06-24T12:32:41;3.85;;;3.10;;
7531;SDS011;3807;49.030;8.714;2023-06-24T12:35:07;2.62;;;2.42;;
7531;SDS011;3807;49.030;8.714;2023-06-24T12:37:36;3.40;;;2.80;;
7531;SDS011;3807;49.030;8.714;2023-06-24T12:40:03;3.20;;;2.65;;
7531;SDS011;3807;49.030;8.714;2023-06-24T12:42:29;2.72;;;2.22;;
7531;SDS011;3807;49.030;8.714;2023-06-24T12:44:54;3.95;;;2.85;;
7531;SDS011;3807;49.030;8.714;2023-06-24T12:47:20;2.87;;;2.37;;
7531;SDS011;3807;49.030;8.714;2023-06-24T12:49:46;3.75;;;2.53;;
7531;SDS011;3807;49.030;8.714;2023-06-24T12:52:14;3.45;;;2.62;;
7531;SDS011;3807;49.030;8.714;2023-06-24T12:54:40;4.65;;;2.60;;
7531;SDS011;3807;49.030;8.714;2023-06-24T12:57:06;3.22;;;2.90;;
7531;SDS011;3807;49.030;8.714;2023-06-24T12:59:32;2.53;;;2.30;;
7531;SDS011;3807;49.030;8.714;2023-06-24T13:01:57;3.08;;;2.78;;
7531;SDS011;3807;49.030;8.714;2023-06-24T13:04:23;3.28;;;2.60;;
7531;SDS011;3807;49.030;8.714;2023-06-24T13:06:49;2.50;;;2.30;;
7531;SDS011;3807;49.030;8.714;2023-06-24T13:09:16;3.08;;;2.55;;
7531;SDS011;3807;49.030;8.714;2023-06-24T13:11:41;3.28;;;2.60;;
7531;SDS011;3807;49.030;8.714;2023-06-24T13:14:07;2.45;;;2.10;;
7531;SDS011;3807;49.030;8.714;2023-06-24T13:16:34;2.65;;;2.45;;
7531;SDS011;3807;49.030;8.714;2023-06-24T13:19:01;2.30;;;2.10;;
7531;SDS011;3807;49.030;8.714;2023-06-24T13:21:26;2.25;;;2.05;;
7531;SDS011;3807;49.030;8.714;2023-06-24T13:23:51;2.58;;;2.37;;
7531;SDS011;3807;49.030;8.714;2023-06-24T13:26:17;2.60;;;2.20;;
7531;SDS011;3807;49.030;8.714;2023-06-24T13:28:42;2.53;;;2.33;;
7531;SDS011;3807;49.030;8.714;2023-06-24T13:31:08;4.40;;;2.20;;
7531;SDS011;3807;49.030;8.714;2023-06-24T13:33:34;2.75;;;2.37;;
7531;SDS011;3807;49.030;8.714;2023-06-24T13:35:59;2.60;;;2.20;;
7531;SDS011;3807;49.030;8.714;2023-06-24T13:38:24;2.67;;;2.05;;
7531;SDS011;3807;49.030;8.714;2023-06-24T13:40:50;2.83;;;2.30;;
7531;SDS011;3807;49.030;8.714;2023-06-24T13:43:15;2.92;;;2.35;;
7531;SDS011;3807;49.030;8.714;2023-06-24T13:45:40;5.57;;;2.37;;
7531;SDS011;3807;49.030;8.714;2023-06-24T13:48:06;2.60;;;2.40;;
7531;SDS011;3807;49.030;8.714;2023-06-24T13:50:31;3.90;;;2.70;;
7531;SDS011;3807;49.030;8.714;2023-06-24T13:52:56;3.58;;;2.50;;
7531;SDS011;3807;49.030;8.714;2023-06-24T13:55:22;2.50;;;2.12;;
7531;SDS011;3807;49.030;8.714;2023-06-24T13:57:47;4.07;;;2.72;;
7531;SDS011;3807;49.030;8.714;2023-06-24T14:00:13;2.90;;;2.60;;
7531;SDS011;3807;49.030;8.714;2023-06-24T14:02:39;3.10;;;2.80;;
7531;SDS011;3807;49.030;8.714;2023-06-24T14:05:05;3.60;;;2.60;;
7531;SDS011;3807;49.030;8.714;2023-06-24T14:07:31;2.55;;;2.35;;
7531;SDS011;3807;49.030;8.714;2023-06-24T14:09:56;3.50;;;2.53;;
7531;SDS011;3807;49.030;8.714;2023-06-24T14:12:22;3.47;;;2.33;;
7531;SDS011;3807;49.030;8.714;2023-06-24T14:14:47;2.72;;;2.30;;
7531;SDS011;3807;49.030;8.714;2023-06-24T14:17:12;3.95;;;2.20;;
7531;SDS011;3807;49.030;8.714;2023-06-24T14:19:38;7.05;;;2.78;;
7531;SDS011;3807;49.030;8.714;2023-06-24T14:22:05;5.12;;;2.55;;
7531;SDS011;3807;49.030;8.714;2023-06-24T14:24:31;2.40;;;2.20;;
7531;SDS011;3807;49.030;8.714;2023-06-24T14:26:56;4.60;;;2.30;;
7531;SDS011;3807;49.030;8.714;2023-06-24T14:29:22;2.47;;;2.25;;
7531;SDS011;3807;49.030;8.714;2023-06-24T14:31:48;2.72;;;2.28;;
7531;SDS011;3807;49.030;8.714;2023-06-24T14:34:13;3.22;;;2.37;;
7531;SDS011;3807;49.030;8.714;2023-06-24T14:36:39;2.60;;;2.37;;
7531;SDS011;3807;49.030;8.714;2023-06-24T14:39:04;2.20;;;2.00;;
7531;SDS011;3807;49.030;8.714;2023-06-24T14:41:30;3.05;;;2.50;;
7531;SDS011;3807;49.030;8.714;2023-06-24T14:43:55;3.28;;;2.42;;
7531;SDS011;3807;49.030;8.714;2023-06-24T14:46:20;2.80;;;2.20;;
7531;SDS011;3807;49.030;8.714;2023-06-24T14:48:46;2.92;;;2.20;;
7531;SDS011;3807;49.030;8.714;2023-06-24T14:51:11;2.97;;;2.28;;
7531;SDS011;3807;49.030;8.714;2023-06-24T14:53:36;2.87;;;2.30;;
7531;SDS011;3807;49.030;8.714;2023-06-24T14:56:02;2.50;;;2.12;;
7531;SDS011;3807;49.030;8.714;2023-06-24T14:58:27;2.85;;;2.12;;
7531;SDS011;3807;49.030;8.714;2023-06-24T15:00:53;3.87;;;2.22;;
7531;SDS011;3807;49.030;8.714;2023-06-24T15:03:18;3.62;;;2.40;;
7531;SDS011;3807;49.030;8.714;2023-06-24T15:05:43;2.78;;;2.40;;
7531;SDS011;3807;49.030;8.714;2023-06-24T15:08:09;2.60;;;2.40;;
7531;SDS011;3807;49.030;8.714;2023-06-24T15:10:35;2.47;;;2.28;;
7531;SDS011;3807;49.030;8.714;2023-06-24T15:13:00;3.10;;;2.45;;
7531;SDS011;3807;49.030;8.714;2023-06-24T15:15:25;3.78;;;2.47;;
7531;SDS011;3807;49.030;8.714;2023-06-24T15:17:51;3.95;;;2.40;;
7531;SDS011;3807;49.030;8.714;2023-06-24T15:20:16;2.65;;;2.17;;
7531;SDS011;3807;49.030;8.714;2023-06-24T15:22:41;3.00;;;2.50;;
7531;SDS011;3807;49.030;8.714;2023-06-24T15:25:07;2.55;;;2.33;;
7531;SDS011;3807;49.030;8.714;2023-06-24T15:27:33;2.50;;;2.17;;
7531;SDS011;3807;49.030;8.714;2023-06-24T15:29:58;2.45;;;2.25;;
7531;SDS011;3807;49.030;8.714;2023-06-24T15:32:23;3.37;;;2.45;;
7531;SDS011;3807;49.030;8.714;2023-06-24T15:34:49;2.95;;;2.50;;